This is the latest recevied weather packets stored in our database for station/object SM0PQB-13. If no packets are shown the sender has not sent any weather packets the latest 10 day(s).
| Time | Temp. | Humidity | Pressure | Rain* | Wind** | Luminosity | Snow |
|---|---|---|---|---|---|---|---|
| 1778019552 | 22.78° C | 35% | 1008.6 hPa | - | - | - | - |
| 1778018953 | 22.78° C | 35% | 1008.5 hPa | - | - | - | - |
| 1778018352 | 22.78° C | 35% | 1008.4 hPa | - | - | - | - |
| 1778017756 | 22.78° C | 35% | 1008.4 hPa | - | - | - | - |
| 1778017201 | 22.78° C | 35% | 1008.3 hPa | - | - | - | - |
| 1778016563 | 21.67° C | 35% | 1006.5 hPa | - | - | - | - |
| 1778015952 | 22.78° C | 35% | 1008.2 hPa | - | - | - | - |
| 1778015353 | 23.33° C | 35% | 1008.1 hPa | - | - | - | - |
| 1778014753 | 22.78° C | 35% | 1008.1 hPa | - | - | - | - |
| 1778014153 | 23.33° C | 35% | 1008 hPa | - | - | - | - |
| 1778013553 | 23.33° C | 34% | 1007.8 hPa | - | - | - | - |
| 1778012955 | 23.33° C | 34% | 1007.8 hPa | - | - | - | - |
| 1778012355 | 23.33° C | 34% | 1007.7 hPa | - | - | - | - |
| 1778011753 | 23.33° C | 33% | 1007.7 hPa | - | - | - | - |
| 1778011152 | 23.33° C | 33% | 1007.6 hPa | - | - | - | - |
| 1778010554 | 23.33° C | 33% | 1007.5 hPa | - | - | - | - |
| 1778009952 | 23.33° C | 33% | 1007.4 hPa | - | - | - | - |
| 1778009353 | 23.33° C | 33% | 1007.3 hPa | - | - | - | - |
| 1778008753 | 23.33° C | 33% | 1007.2 hPa | - | - | - | - |
| 1778008153 | 23.33° C | 32% | 1007.1 hPa | - | - | - | - |
| 1778007555 | 23.33° C | 32% | 1007 hPa | - | - | - | - |
| 1778006957 | 23.33° C | 32% | 1006.8 hPa | - | - | - | - |
| 1778006355 | 22.78° C | 32% | 1005.4 hPa | - | - | - | - |
| 1778005752 | 23.33° C | 32% | 1006.5 hPa | - | - | - | - |
| 1778005152 | 23.89° C | 32% | 1006.5 hPa | - | - | - | - |
* Rain since midnight (hover to see other rain measurements)
** Current wind speed in m/s (hover to see current wind gust speed)